createdAt,value
2017-05-07T00:01:08.168Z,72.30
2017-05-07T00:03:37.712Z,72.00
2017-05-07T00:06:07.275Z,72.30
2017-05-07T00:08:36.816Z,72.70
2017-05-07T00:11:06.357Z,72.80
2017-05-07T00:13:35.888Z,72.80
2017-05-07T00:16:05.440Z,73.40
2017-05-07T00:18:34.977Z,73.50
2017-05-07T00:21:04.552Z,72.80
2017-05-07T00:23:34.076Z,72.80
2017-05-07T00:26:03.636Z,72.80
2017-05-07T00:28:33.286Z,73.20
2017-05-07T00:31:02.841Z,73.50
2017-05-07T00:33:32.375Z,72.90
2017-05-07T00:36:02.664Z,72.50
2017-05-07T00:38:32.216Z,73.10
2017-05-07T00:41:02.487Z,72.40
2017-05-07T00:43:32.044Z,72.10
2017-05-07T00:46:01.580Z,72.10
2017-05-07T00:48:31.292Z,72.30
2017-05-07T00:51:00.823Z,72.30
2017-05-07T00:53:30.356Z,72.60
2017-05-07T00:56:00.639Z,72.90
2017-05-07T00:58:30.172Z,72.90
2017-05-07T01:01:00.462Z,72.90
2017-05-07T01:03:29.987Z,73.30
2017-05-07T01:06:00.500Z,73.10
2017-05-07T01:08:30.039Z,73.40
2017-05-07T01:10:59.784Z,73.10
2017-05-07T01:13:29.323Z,72.80
2017-05-07T01:15:58.891Z,72.70
2017-05-07T01:18:28.423Z,72.70
2017-05-07T01:20:57.959Z,72.70
2017-05-07T01:23:28.229Z,72.90
2017-05-07T01:25:57.783Z,73.10
2017-05-07T01:28:27.311Z,73.60
2017-05-07T01:30:56.901Z,73.80
2017-05-07T01:33:26.400Z,73.70
2017-05-07T01:35:56.791Z,73.90
2017-05-07T01:38:26.400Z,74.60
2017-05-07T01:40:55.903Z,74.20
2017-05-07T01:43:25.438Z,74.10
2017-05-07T01:45:55.715Z,73.90
2017-05-07T01:48:25.272Z,74.90
2017-05-07T01:50:55.559Z,74.50
2017-05-07T01:53:25.118Z,74.60
2017-05-07T01:55:54.642Z,74.80
2017-05-07T01:58:24.182Z,74.70
2017-05-07T02:00:53.711Z,74.40
2017-05-07T02:03:24.103Z,74.60
2017-05-07T02:05:53.590Z,74.90
2017-05-07T02:08:23.131Z,76.00
2017-05-07T02:10:52.674Z,76.40
2017-05-07T02:13:22.212Z,75.70
2017-05-07T02:15:51.755Z,76.30
2017-05-07T02:18:22.023Z,76.00
2017-05-07T02:20:51.575Z,76.30
2017-05-07T02:23:21.098Z,76.30
2017-05-07T02:25:50.642Z,76.50
2017-05-07T02:28:20.174Z,76.80
2017-05-07T02:30:50.690Z,77.30
2017-05-07T02:33:20.210Z,77.70
2017-05-07T02:35:49.778Z,78.00
2017-05-07T02:38:19.350Z,78.70
2017-05-07T02:40:49.634Z,79.70
2017-05-07T02:43:19.179Z,80.20
2017-05-07T02:45:49.450Z,80.20
2017-05-07T02:48:19.038Z,80.90
2017-05-07T02:50:49.279Z,79.90
2017-05-07T02:53:19.159Z,80.00
2017-05-07T02:55:48.691Z,81.50
2017-05-07T02:58:18.218Z,81.30
2017-05-07T03:00:47.778Z,81.60
2017-05-07T03:03:17.307Z,82.20
2017-05-07T03:05:46.884Z,82.60
2017-05-07T03:08:16.417Z,82.50
2017-05-07T03:10:45.994Z,82.90
2017-05-07T03:13:15.549Z,82.20
2017-05-07T03:15:45.109Z,82.10
2017-05-07T03:18:14.646Z,82.80
2017-05-07T03:20:44.187Z,83.80
2017-05-07T03:23:13.741Z,83.80
2017-05-07T03:25:43.285Z,84.20
2017-05-07T03:28:12.841Z,84.30
2017-05-07T03:30:42.386Z,83.90
2017-05-07T03:33:11.933Z,83.80
2017-05-07T03:35:42.241Z,83.60
2017-05-07T03:38:12.518Z,83.60
2017-05-07T03:40:42.085Z,82.90
2017-05-07T03:43:11.617Z,82.30
2017-05-07T03:45:41.470Z,83.00
2017-05-07T03:48:11.010Z,83.20
2017-05-07T03:50:40.621Z,83.80
2017-05-07T03:53:10.169Z,83.80
2017-05-07T03:55:39.737Z,83.50
2017-05-07T03:58:09.277Z,83.90
2017-05-07T04:00:38.829Z,83.10
2017-05-07T04:03:08.369Z,83.00
2017-05-07T04:05:37.917Z,83.30
2017-05-07T04:08:08.193Z,84.60
2017-05-07T04:10:37.766Z,84.40
2017-05-07T04:13:08.153Z,84.40
2017-05-07T04:15:37.670Z,84.40
2017-05-07T04:18:07.209Z,84.00
2017-05-07T04:20:36.784Z,84.60
2017-05-07T04:23:06.321Z,83.90
2017-05-07T04:25:35.892Z,83.10
2017-05-07T04:28:05.433Z,84.40
2017-05-07T04:30:34.988Z,84.30
2017-05-07T04:33:04.529Z,84.70
2017-05-07T04:35:34.821Z,84.60
2017-05-07T04:38:04.361Z,85.50
2017-05-07T04:40:34.644Z,85.50
2017-05-07T04:43:04.210Z,84.40
2017-05-07T04:45:33.756Z,83.90
2017-05-07T04:48:03.320Z,83.40
2017-05-07T04:50:32.869Z,83.90
2017-05-07T04:53:02.408Z,83.50
2017-05-07T04:55:31.981Z,83.40
2017-05-07T04:58:01.521Z,83.60
2017-05-07T05:00:31.073Z,83.40
2017-05-07T05:03:00.652Z,85.10
2017-05-07T05:05:30.200Z,84.60
2017-05-07T05:07:59.749Z,84.30
2017-05-07T05:10:29.312Z,84.00
2017-05-07T05:12:58.848Z,85.00
2017-05-07T05:15:28.408Z,84.40
2017-05-07T05:17:57.948Z,84.00
2017-05-07T05:20:43.136Z,83.90
2017-05-07T05:26:16.633Z,83.90
2017-05-07T05:29:03.792Z,83.20
2017-05-07T05:31:36.832Z,83.50
2017-05-07T05:34:13.456Z,82.60
2017-05-07T05:36:43.029Z,82.80
2017-05-07T05:39:13.317Z,83.10
2017-05-07T05:41:42.884Z,82.70
2017-05-07T05:44:12.424Z,82.50
2017-05-07T05:46:42.036Z,82.50
2017-05-07T05:49:11.543Z,82.60
2017-05-07T05:51:41.103Z,82.80
2017-05-07T05:54:10.655Z,83.00
2017-05-07T05:56:40.224Z,82.00
2017-05-07T05:59:09.771Z,82.10
2017-05-07T06:01:39.340Z,81.70
2017-05-07T06:04:08.887Z,81.50
2017-05-07T06:06:39.187Z,81.40
2017-05-07T06:09:08.736Z,81.30
2017-05-07T06:11:38.314Z,80.70
2017-05-07T06:14:07.867Z,81.10
2017-05-07T06:16:37.716Z,81.00
2017-05-07T06:19:08.155Z,81.00
2017-05-07T06:21:37.695Z,80.10
2017-05-07T06:24:07.991Z,79.30
2017-05-07T06:26:37.540Z,79.90
2017-05-07T06:29:07.091Z,80.10
2017-05-07T06:31:36.627Z,79.40
2017-05-07T06:34:06.936Z,79.80
2017-05-07T06:36:36.467Z,79.70
2017-05-07T06:39:06.011Z,77.80
2017-05-07T06:41:35.555Z,78.50
2017-05-07T06:44:05.848Z,79.50
2017-05-07T06:46:35.383Z,79.10
2017-05-07T06:49:04.943Z,79.70
2017-05-07T06:51:34.475Z,79.70
2017-05-07T06:54:04.019Z,79.80
2017-05-07T06:56:33.863Z,79.20
2017-05-07T06:59:03.399Z,78.90
2017-05-07T07:01:32.931Z,78.20
2017-05-07T07:04:03.323Z,79.00
2017-05-07T07:06:32.836Z,78.10
2017-05-07T07:09:02.363Z,77.50
2017-05-07T07:11:32.658Z,76.70
2017-05-07T07:14:03.168Z,76.60
2017-05-07T07:16:32.724Z,77.00
2017-05-07T07:19:02.995Z,76.40
2017-05-07T07:21:32.550Z,76.30
2017-05-07T07:24:02.822Z,76.20
2017-05-07T07:26:32.375Z,75.30
2017-05-07T07:29:02.647Z,75.80
2017-05-07T07:31:32.202Z,76.20
2017-05-07T07:34:02.483Z,75.10
2017-05-07T07:36:32.023Z,74.10
2017-05-07T07:39:02.295Z,74.10
2017-05-07T07:41:31.850Z,73.20
2017-05-07T07:44:02.122Z,71.80
2017-05-07T07:46:31.656Z,71.30
2017-05-07T07:49:01.190Z,72.10
2017-05-07T07:51:31.466Z,71.40
2017-05-07T07:54:01.031Z,72.60
2017-05-07T07:56:30.555Z,73.00
2017-05-07T07:59:00.094Z,73.20
2017-05-07T08:01:29.626Z,73.40
2017-05-07T08:04:00.010Z,73.80
2017-05-07T08:06:30.086Z,73.70
2017-05-07T08:08:59.626Z,74.00
2017-05-07T08:11:29.405Z,73.40
2017-05-07T08:13:58.938Z,73.20
2017-05-07T08:16:28.495Z,73.00
2017-05-07T08:18:58.766Z,73.00
2017-05-07T08:21:28.322Z,72.10
2017-05-07T08:23:58.589Z,72.80
2017-05-07T08:26:28.445Z,74.50
2017-05-07T08:28:57.978Z,75.60
2017-05-07T08:31:28.263Z,76.20
2017-05-07T08:33:57.798Z,76.00
2017-05-07T08:36:27.357Z,76.80
2017-05-07T08:38:56.893Z,74.80
2017-05-07T08:41:27.734Z,75.40
2017-05-07T08:43:57.457Z,75.70
2017-05-07T08:46:27.014Z,75.10
2017-05-07T08:48:56.549Z,75.10
2017-05-07T08:51:26.837Z,75.70
2017-05-07T08:53:56.369Z,74.10
2017-05-07T08:56:26.653Z,73.70
2017-05-07T08:58:56.218Z,73.70
2017-05-07T09:01:26.489Z,71.30
2017-05-07T09:03:56.025Z,72.00
2017-05-07T09:06:26.855Z,71.40
2017-05-07T09:08:56.449Z,71.20
2017-05-07T09:11:25.945Z,71.80
2017-05-07T09:13:56.393Z,72.70
2017-05-07T09:16:44.249Z,73.10
2017-05-07T09:19:26.321Z,72.90
2017-05-07T09:21:56.569Z,74.00
2017-05-07T09:24:26.992Z,74.10
2017-05-07T09:26:57.301Z,73.60
2017-05-07T09:29:26.868Z,73.60
2017-05-07T09:31:56.385Z,73.30
2017-05-07T09:34:25.933Z,73.70
2017-05-07T09:36:55.485Z,73.80
2017-05-07T09:39:25.154Z,73.30
2017-05-07T09:41:55.461Z,72.60
2017-05-07T09:44:24.997Z,71.80
2017-05-07T09:46:54.528Z,72.10
2017-05-07T09:49:24.102Z,71.70
2017-05-07T09:51:54.504Z,71.00
2017-05-07T09:54:24.850Z,70.60
2017-05-07T09:56:55.404Z,71.30
2017-05-07T09:59:25.146Z,71.30
2017-05-07T10:01:54.792Z,72.00
2017-05-07T10:04:25.325Z,71.70
2017-05-07T10:06:54.929Z,72.20
2017-05-07T10:09:24.469Z,72.30
2017-05-07T10:11:54.128Z,71.50
2017-05-07T10:14:24.453Z,71.40
2017-05-07T10:16:53.984Z,72.00
2017-05-07T10:19:23.609Z,71.60
2017-05-07T10:21:53.273Z,72.00
2017-05-07T10:24:23.576Z,72.80
2017-05-07T10:26:53.213Z,71.30
2017-05-07T10:29:23.132Z,70.80
2017-05-07T10:31:53.517Z,72.00
2017-05-07T10:34:23.195Z,72.30
2017-05-07T10:36:53.592Z,71.20
2017-05-07T10:39:23.163Z,70.70
2017-05-07T10:41:52.672Z,71.00
2017-05-07T10:44:22.284Z,69.70
2017-05-07T10:46:51.959Z,69.60
2017-05-07T10:49:21.692Z,69.60
2017-05-07T10:51:51.340Z,70.20
2017-05-07T10:54:21.076Z,68.50
2017-05-07T10:56:51.468Z,68.10
2017-05-07T10:59:21.067Z,67.50
2017-05-07T11:01:50.828Z,67.60
2017-05-07T11:04:20.452Z,68.00
2017-05-07T11:06:50.024Z,67.30
2017-05-07T11:09:19.566Z,66.80
2017-05-07T11:11:49.095Z,66.00
2017-05-07T11:14:18.676Z,66.30
2017-05-07T11:16:48.208Z,67.40
2017-05-07T11:19:18.507Z,67.90
2017-05-07T11:21:48.043Z,68.40
2017-05-07T11:24:18.328Z,68.60
2017-05-07T11:26:47.855Z,68.10
2017-05-07T11:29:18.152Z,67.10
2017-05-07T11:31:47.700Z,66.30
2017-05-07T11:34:18.899Z,66.90
2017-05-07T11:36:48.448Z,64.60
2017-05-07T11:39:18.751Z,65.40
2017-05-07T11:41:48.288Z,65.30
2017-05-07T11:44:17.832Z,65.30
2017-05-07T11:46:47.367Z,65.80
2017-05-07T11:49:17.654Z,65.40
2017-05-07T11:51:47.194Z,65.20
2017-05-07T11:54:16.727Z,65.60
2017-05-07T11:56:46.588Z,66.40
2017-05-07T11:59:16.119Z,66.00
2017-05-07T12:01:46.407Z,66.10
2017-05-07T12:04:15.939Z,66.90
2017-05-07T12:06:45.471Z,66.70
2017-05-07T12:09:15.007Z,65.70
2017-05-07T12:11:44.543Z,64.50
2017-05-07T12:14:14.091Z,63.30
2017-05-07T12:16:43.623Z,62.80
2017-05-07T12:19:13.158Z,63.20
2017-05-07T12:21:42.699Z,63.60
2017-05-07T12:24:12.233Z,64.00
2017-05-07T12:26:41.763Z,63.30
2017-05-07T12:29:11.734Z,65.00
2017-05-07T12:31:41.279Z,65.10
2017-05-07T12:34:10.810Z,65.50
2017-05-07T12:36:40.343Z,65.20
2017-05-07T12:39:09.902Z,64.00
2017-05-07T12:41:39.431Z,65.10
2017-05-07T12:44:09.722Z,64.30
2017-05-07T12:46:39.255Z,64.40
2017-05-07T12:49:08.786Z,64.50
2017-05-07T12:51:38.322Z,64.00
2017-05-07T12:54:07.878Z,64.80
2017-05-07T12:56:38.155Z,65.00
2017-05-07T12:59:07.726Z,65.60
2017-05-07T13:01:37.255Z,66.30
2017-05-07T13:04:06.795Z,65.00
2017-05-07T13:06:36.322Z,64.90
2017-05-07T13:09:06.615Z,64.70
2017-05-07T13:11:36.150Z,63.70
2017-05-07T13:14:06.446Z,62.40
2017-05-07T13:16:36.079Z,64.30
2017-05-07T13:19:06.382Z,59.80
2017-05-07T13:21:35.910Z,58.80
2017-05-07T13:24:06.190Z,59.20
2017-05-07T13:26:35.826Z,59.80
2017-05-07T13:29:05.374Z,59.20
2017-05-07T13:31:34.902Z,59.30
2017-05-07T13:34:04.442Z,58.70
2017-05-07T13:36:34.714Z,58.70
2017-05-07T13:39:04.585Z,58.90
2017-05-07T13:41:35.067Z,59.50
2017-05-07T13:44:04.606Z,59.50
2017-05-07T13:46:34.138Z,60.70
2017-05-07T13:49:03.681Z,59.70
2017-05-07T13:51:33.218Z,59.00
2017-05-07T13:54:02.754Z,59.10
2017-05-07T13:56:32.292Z,59.00
2017-05-07T13:59:01.825Z,59.50
2017-05-07T14:01:31.354Z,60.90
2017-05-07T14:04:01.629Z,60.60
2017-05-07T14:06:31.169Z,60.40
2017-05-07T14:09:00.705Z,61.20
2017-05-07T14:11:30.261Z,61.60
2017-05-07T14:13:59.818Z,61.50
2017-05-07T14:16:29.357Z,61.10
2017-05-07T14:18:58.893Z,59.90
2017-05-07T14:21:28.429Z,59.80
2017-05-07T14:23:57.957Z,59.10
2017-05-07T14:26:27.517Z,58.80
2017-05-07T14:28:57.781Z,58.60
2017-05-07T14:31:27.341Z,57.70
2017-05-07T14:33:56.877Z,56.60
2017-05-07T14:36:26.413Z,57.40
2017-05-07T14:38:55.946Z,57.90
2017-05-07T14:41:25.493Z,57.80
2017-05-07T14:43:55.029Z,57.80
2017-05-07T14:46:24.569Z,57.30
2017-05-07T14:48:54.112Z,57.20
2017-05-07T14:51:23.644Z,58.70
2017-05-07T14:53:53.182Z,57.00
2017-05-07T14:56:22.713Z,57.40
2017-05-07T14:58:52.981Z,57.10
2017-05-07T15:01:22.533Z,56.80
2017-05-07T15:03:52.804Z,56.10
2017-05-07T15:06:23.676Z,57.20
2017-05-07T15:08:53.200Z,56.50
2017-05-07T15:11:22.741Z,55.90
2017-05-07T15:13:52.268Z,56.50
2017-05-07T15:16:21.813Z,57.30
2017-05-07T15:18:52.093Z,58.60
2017-05-07T15:21:21.624Z,58.90
2017-05-07T15:23:51.156Z,58.10
2017-05-07T15:26:20.688Z,57.10
2017-05-07T15:28:50.221Z,58.40
2017-05-07T15:31:19.752Z,58.00
2017-05-07T15:33:50.052Z,58.00
2017-05-07T15:36:19.576Z,58.70
2017-05-07T15:38:49.872Z,58.80
2017-05-07T15:41:19.388Z,57.80
2017-05-07T15:43:48.937Z,58.00
2017-05-07T15:46:18.471Z,58.40
2017-05-07T15:48:48.008Z,59.00
2017-05-07T15:51:17.548Z,59.30
2017-05-07T15:53:47.088Z,59.80
2017-05-07T15:56:16.616Z,59.70
2017-05-07T15:58:46.161Z,60.10
2017-05-07T16:01:15.688Z,60.80
2017-05-07T16:03:45.229Z,61.10
2017-05-07T16:06:14.772Z,61.60
2017-05-07T16:08:44.308Z,63.00
2017-05-07T16:11:13.844Z,62.20
2017-05-07T16:13:43.443Z,61.50
2017-05-07T16:16:37.463Z,61.70
2017-05-07T16:22:28.456Z,61.70
2017-05-07T16:25:27.776Z,62.00
2017-05-07T16:28:21.867Z,61.30
2017-05-07T16:30:51.151Z,60.70
2017-05-07T16:33:20.455Z,60.00
2017-05-07T16:35:49.751Z,59.70
2017-05-07T16:38:19.051Z,61.10
2017-05-07T16:40:48.352Z,61.20
2017-05-07T16:43:17.659Z,59.30
2017-05-07T16:45:46.952Z,59.00
2017-05-07T16:48:16.243Z,59.80
2017-05-07T16:50:45.544Z,60.40
2017-05-07T16:53:14.839Z,60.50
2017-05-07T16:55:44.135Z,60.10
2017-05-07T16:58:13.446Z,61.00
2017-05-07T17:00:42.743Z,61.60
2017-05-07T17:03:17.851Z,61.60
2017-05-07T17:05:47.144Z,62.30
2017-05-07T17:08:16.783Z,62.70
2017-05-07T17:10:46.091Z,61.40
2017-05-07T17:13:15.379Z,61.70
2017-05-07T17:15:44.672Z,62.50
2017-05-07T17:18:13.971Z,62.30
2017-05-07T17:20:43.272Z,62.70
2017-05-07T17:23:12.752Z,63.10
2017-05-07T17:28:12.323Z,64.50
2017-05-07T17:30:42.623Z,64.60
2017-05-07T17:33:12.161Z,64.60
2017-05-07T17:35:42.426Z,65.00
2017-05-07T17:38:11.962Z,64.90
2017-05-07T17:40:41.507Z,64.80
2017-05-07T17:43:11.043Z,64.90
2017-05-07T17:45:40.593Z,65.10
2017-05-07T17:48:10.103Z,66.50
2017-05-07T17:50:40.386Z,66.40
2017-05-07T17:53:10.039Z,66.70
2017-05-07T17:55:39.603Z,66.80
2017-05-07T17:58:09.106Z,66.90
2017-05-07T18:00:38.635Z,67.80
2017-05-07T18:03:08.910Z,68.40
2017-05-07T18:05:38.446Z,68.20
2017-05-07T18:08:07.982Z,67.90
2017-05-07T18:10:38.259Z,68.60
2017-05-07T18:13:07.808Z,69.20
2017-05-07T18:15:38.085Z,69.50
2017-05-07T18:18:07.634Z,69.70
2017-05-07T18:20:37.908Z,69.60
2017-05-07T18:23:07.451Z,69.50
2017-05-07T18:25:37.739Z,70.00
2017-05-07T18:28:07.278Z,70.80
2017-05-07T18:30:37.555Z,70.80
2017-05-07T18:33:07.102Z,70.70
2017-05-07T18:35:37.380Z,71.10
2017-05-07T18:38:06.922Z,70.60
2017-05-07T18:40:36.462Z,71.10
2017-05-07T18:43:06.003Z,71.00
2017-05-07T18:45:35.558Z,71.00
2017-05-07T18:48:05.097Z,70.90
2017-05-07T18:50:34.642Z,71.10
2017-05-07T18:53:04.183Z,70.90
2017-05-07T18:55:33.734Z,71.60
2017-05-07T18:58:03.274Z,71.00
2017-05-07T19:00:33.566Z,71.50
2017-05-07T19:03:03.110Z,71.50
2017-05-07T19:05:32.670Z,72.60
2017-05-07T19:08:02.222Z,73.20
2017-05-07T19:10:32.609Z,72.80
2017-05-07T19:13:02.162Z,72.00
2017-05-07T19:15:31.706Z,72.10
2017-05-07T19:18:01.245Z,72.60
2017-05-07T19:20:31.542Z,72.80
2017-05-07T19:23:02.033Z,72.90
2017-05-07T19:25:31.590Z,72.60
2017-05-07T19:28:01.130Z,72.60
2017-05-07T19:30:30.669Z,73.30
2017-05-07T19:33:00.549Z,73.90
2017-05-07T19:35:30.253Z,74.00
2017-05-07T19:38:00.603Z,73.60
2017-05-07T19:40:30.257Z,73.60
2017-05-07T19:42:59.982Z,74.00
2017-05-07T19:45:29.889Z,74.30
2017-05-07T19:47:59.730Z,74.90
2017-05-07T19:50:29.453Z,73.80
2017-05-07T19:52:59.349Z,74.50
2017-05-07T19:55:29.077Z,74.60
2017-05-07T19:57:59.033Z,75.00
2017-05-07T20:00:28.941Z,75.80
2017-05-07T20:02:58.593Z,76.30
2017-05-07T20:05:28.233Z,75.60
2017-05-07T20:07:58.397Z,76.20
2017-05-07T20:10:28.292Z,76.80
2017-05-07T20:12:58.769Z,77.20
2017-05-07T20:15:28.596Z,78.50
2017-05-07T20:17:58.969Z,78.60
2017-05-07T20:20:29.739Z,78.50
2017-05-07T20:23:00.305Z,79.20
2017-05-07T20:25:30.260Z,79.10
2017-05-07T20:28:00.281Z,79.30
2017-05-07T20:30:30.525Z,79.30
2017-05-07T20:33:00.316Z,78.80
2017-05-07T20:35:30.261Z,78.00
2017-05-07T20:38:00.433Z,77.50
2017-05-07T20:40:30.045Z,77.40
2017-05-07T20:43:00.385Z,77.30
2017-05-07T20:45:29.980Z,75.80
2017-05-07T20:47:59.521Z,75.90
2017-05-07T20:50:29.581Z,75.50
2017-05-07T20:52:59.984Z,74.70
2017-05-07T20:55:29.520Z,74.70
2017-05-07T20:57:59.081Z,74.20
2017-05-07T21:00:29.040Z,74.50
2017-05-07T21:02:58.768Z,74.80
2017-05-07T21:05:28.848Z,73.90
2017-05-07T21:07:59.189Z,73.30
2017-05-07T21:10:29.308Z,73.50
2017-05-07T21:12:59.153Z,73.50
2017-05-07T21:15:29.297Z,73.50
2017-05-07T21:17:58.908Z,74.80
2017-05-07T21:20:29.840Z,75.10
2017-05-07T21:23:00.012Z,74.20
2017-05-07T21:25:31.204Z,73.70
2017-05-07T21:28:01.464Z,73.00
2017-05-07T21:30:31.683Z,73.10
2017-05-07T21:33:01.764Z,73.70
2017-05-07T21:35:31.828Z,73.40
2017-05-07T21:38:01.796Z,73.80
2017-05-07T21:40:32.899Z,74.30
2017-05-07T21:43:03.707Z,74.50
2017-05-07T21:45:34.091Z,74.20
2017-05-07T21:48:04.708Z,74.40
2017-05-07T21:50:34.619Z,74.80
2017-05-07T21:53:05.004Z,75.10
2017-05-07T21:55:35.783Z,75.10
2017-05-07T21:58:06.435Z,74.90
2017-05-07T22:00:36.452Z,75.00
2017-05-07T22:03:08.451Z,75.40
2017-05-07T22:05:38.271Z,75.50
2017-05-07T22:08:08.091Z,75.00
2017-05-07T22:10:38.639Z,75.50
2017-05-07T22:13:09.112Z,76.60
2017-05-07T22:15:38.836Z,75.70
2017-05-07T22:18:08.968Z,75.60
2017-05-07T22:20:38.856Z,76.30
2017-05-07T22:23:09.271Z,77.00
2017-05-07T22:25:39.155Z,77.20
2017-05-07T22:28:09.611Z,77.20
2017-05-07T22:30:39.491Z,78.00
2017-05-07T22:33:10.047Z,78.00
2017-05-07T22:35:40.303Z,78.70
2017-05-07T22:38:10.055Z,78.90
2017-05-07T22:40:40.267Z,78.20
2017-05-07T22:43:10.088Z,78.30
2017-05-07T22:45:40.463Z,79.30
2017-05-07T22:48:10.399Z,79.40
2017-05-07T22:50:40.427Z,79.50
2017-05-07T22:53:10.535Z,80.20
2017-05-07T22:55:41.507Z,81.10
2017-05-07T22:58:11.739Z,81.10
2017-05-07T23:00:41.698Z,80.30
2017-05-07T23:03:11.659Z,79.60
2017-05-07T23:05:41.643Z,79.70
2017-05-07T23:08:12.159Z,80.90
2017-05-07T23:10:42.534Z,81.70
2017-05-07T23:13:13.034Z,81.40
2017-05-07T23:15:43.275Z,81.30
2017-05-07T23:18:14.090Z,81.80
2017-05-07T23:20:44.418Z,82.70
2017-05-07T23:23:15.035Z,83.60
2017-05-07T23:25:44.842Z,83.80
2017-05-07T23:28:15.426Z,84.00
2017-05-07T23:30:45.606Z,84.90
2017-05-07T23:33:16.012Z,84.20
2017-05-07T23:35:46.158Z,84.90
2017-05-07T23:38:16.306Z,86.00
2017-05-07T23:40:46.502Z,86.00
2017-05-07T23:43:16.666Z,85.20
2017-05-07T23:45:46.902Z,85.30
2017-05-07T23:48:17.194Z,85.00
2017-05-07T23:50:47.459Z,85.50
2017-05-07T23:53:17.394Z,85.50
2017-05-07T23:55:48.128Z,86.20
2017-05-07T23:58:18.926Z,86.20
